createdAt,value
2019-03-13T00:00:05.526Z,964.25
2019-03-13T00:01:04.466Z,964.11
2019-03-13T00:02:04.843Z,964.25
2019-03-13T00:03:04.866Z,964.14
2019-03-13T00:04:05.398Z,964.19
2019-03-13T00:05:05.170Z,964.22
2019-03-13T00:06:04.806Z,964.13
2019-03-13T00:07:04.807Z,964.30
2019-03-13T00:08:05.463Z,964.33
2019-03-13T00:09:04.468Z,964.24
2019-03-13T00:10:05.133Z,964.15
2019-03-13T00:11:04.611Z,964.26
2019-03-13T00:12:04.590Z,964.12
2019-03-13T00:13:04.821Z,964.20
2019-03-13T00:14:04.477Z,964.12
2019-03-13T00:15:04.787Z,964.14
2019-03-13T00:16:04.960Z,964.28
2019-03-13T00:17:05.158Z,964.28
2019-03-13T00:18:04.746Z,964.22
2019-03-13T00:19:04.680Z,964.22
2019-03-13T00:20:04.847Z,964.20
2019-03-13T00:21:04.990Z,964.25
2019-03-13T00:22:05.107Z,964.42
2019-03-13T00:23:05.246Z,964.22
2019-03-13T00:24:04.515Z,964.22
2019-03-13T00:25:04.610Z,964.28
2019-03-13T00:26:04.674Z,964.31
2019-03-13T00:27:05.367Z,964.39
2019-03-13T00:28:04.712Z,964.36
2019-03-13T00:29:04.955Z,964.28
2019-03-13T00:30:04.899Z,964.31
2019-03-13T00:31:05.210Z,964.22
2019-03-13T00:32:04.705Z,964.25
2019-03-13T00:33:04.669Z,964.28
2019-03-13T00:34:05.326Z,964.28
2019-03-13T00:35:05.346Z,964.31
2019-03-13T00:36:04.666Z,964.45
2019-03-13T00:37:05.125Z,964.23
2019-03-13T00:38:05.406Z,964.26
2019-03-13T00:39:04.493Z,964.37
2019-03-13T00:40:04.781Z,964.43
2019-03-13T00:41:04.928Z,964.40
2019-03-13T00:42:04.942Z,964.23
2019-03-13T00:43:10.416Z,964.29
2019-03-13T00:44:04.816Z,964.12
2019-03-13T00:45:05.260Z,964.26
2019-03-13T00:46:04.563Z,964.29
2019-03-13T00:47:04.756Z,964.29
2019-03-13T00:48:04.960Z,964.29
2019-03-13T00:49:05.134Z,964.21
2019-03-13T00:50:05.415Z,964.27
2019-03-13T00:51:05.204Z,964.24
2019-03-13T00:52:05.367Z,964.47
2019-03-13T00:53:04.693Z,964.38
2019-03-13T00:54:05.030Z,964.47
2019-03-13T00:55:05.084Z,964.47
2019-03-13T00:56:05.147Z,964.30
2019-03-13T00:57:04.844Z,964.16
2019-03-13T00:58:04.888Z,964.39
2019-03-13T00:59:05.482Z,964.33
2019-03-13T01:00:04.699Z,964.22
2019-03-13T01:01:05.138Z,964.14
2019-03-13T01:02:05.529Z,964.14
2019-03-13T01:03:04.562Z,964.20
2019-03-13T01:04:04.849Z,964.23
2019-03-13T01:05:04.617Z,964.26
2019-03-13T01:06:04.657Z,964.17
2019-03-13T01:07:04.889Z,964.23
2019-03-13T01:08:05.307Z,964.26
2019-03-13T01:09:05.309Z,964.21
2019-03-13T01:10:04.808Z,964.18
2019-03-13T01:11:05.253Z,964.15
2019-03-13T01:12:04.731Z,964.21
2019-03-13T01:13:05.450Z,964.21
2019-03-13T01:14:05.096Z,964.19
2019-03-13T01:15:04.631Z,964.05
2019-03-13T01:16:05.053Z,964.10
2019-03-13T01:17:05.580Z,964.22
2019-03-13T01:18:05.022Z,964.19
2019-03-13T01:19:05.271Z,964.11
2019-03-13T01:20:05.371Z,964.03
2019-03-13T01:21:05.036Z,963.97
2019-03-13T01:22:05.373Z,964.06
2019-03-13T01:23:05.526Z,963.79
2019-03-13T01:24:04.545Z,964.03
2019-03-13T01:25:04.782Z,963.95
2019-03-13T01:26:05.138Z,964.06
2019-03-13T01:27:05.126Z,964.12
2019-03-13T01:28:05.460Z,963.92
2019-03-13T01:29:04.682Z,963.96
2019-03-13T01:30:04.865Z,964.04
2019-03-13T01:31:05.312Z,964.24
2019-03-13T01:32:05.036Z,964.33
2019-03-13T01:33:05.069Z,964.10
2019-03-13T01:34:04.730Z,964.25
2019-03-13T01:35:05.073Z,964.16
2019-03-13T01:36:05.208Z,964.25
2019-03-13T01:37:04.527Z,964.22
2019-03-13T01:38:04.763Z,964.08
2019-03-13T01:39:05.118Z,964.08
2019-03-13T01:40:05.456Z,964.14
2019-03-13T01:41:05.022Z,964.17
2019-03-13T01:42:05.210Z,964.28
2019-03-13T01:43:10.283Z,964.31
2019-03-13T01:44:04.651Z,964.23
2019-03-13T01:45:05.243Z,964.17
2019-03-13T01:46:05.506Z,964.31
2019-03-13T01:47:04.809Z,964.26
2019-03-13T01:48:05.330Z,964.15
2019-03-13T01:49:05.381Z,964.12
2019-03-13T01:50:04.708Z,964.07
2019-03-13T01:51:05.191Z,964.21
2019-03-13T01:52:05.241Z,964.18
2019-03-13T01:53:04.622Z,964.10
2019-03-13T01:54:04.940Z,964.35
2019-03-13T01:55:04.959Z,964.38
2019-03-13T01:56:05.588Z,964.32
2019-03-13T01:57:04.855Z,964.44
2019-03-13T01:58:04.690Z,964.27
2019-03-13T01:59:04.679Z,964.30
2019-03-13T02:00:04.939Z,964.27
2019-03-13T02:01:05.190Z,964.19
2019-03-13T02:02:05.374Z,964.11
2019-03-13T02:03:04.601Z,964.39
2019-03-13T02:04:04.878Z,964.39
2019-03-13T02:05:04.979Z,964.39
2019-03-13T02:06:05.135Z,964.14
2019-03-13T02:07:09.702Z,964.19
2019-03-13T02:08:05.198Z,964.14
2019-03-13T02:09:05.216Z,964.05
2019-03-13T02:10:05.653Z,964.11
2019-03-13T02:11:05.003Z,964.28
2019-03-13T02:12:04.695Z,964.14
2019-03-13T02:13:05.277Z,964.22
2019-03-13T02:14:04.492Z,964.20
2019-03-13T02:15:04.726Z,964.34
2019-03-13T02:16:04.765Z,964.31
2019-03-13T02:17:04.884Z,964.34
2019-03-13T02:18:05.002Z,964.45
2019-03-13T02:19:05.181Z,964.45
2019-03-13T02:20:04.783Z,964.48
2019-03-13T02:21:05.168Z,964.59
2019-03-13T02:22:05.317Z,964.48
2019-03-13T02:23:04.775Z,964.45
2019-03-13T02:24:04.863Z,964.45
2019-03-13T02:25:04.977Z,964.62
2019-03-13T02:26:05.160Z,964.59
2019-03-13T02:27:04.594Z,964.50
2019-03-13T02:28:04.937Z,964.53
2019-03-13T02:29:05.082Z,964.59
2019-03-13T02:30:05.356Z,964.56
2019-03-13T02:31:05.526Z,964.75
2019-03-13T02:32:05.175Z,964.67
2019-03-13T02:33:04.481Z,964.89
2019-03-13T02:34:04.986Z,964.86
2019-03-13T02:35:04.688Z,964.91
2019-03-13T02:36:04.721Z,964.78
2019-03-13T02:37:05.121Z,964.94
2019-03-13T02:38:05.290Z,965.06
2019-03-13T02:39:05.458Z,965.17
2019-03-13T02:40:04.898Z,965.25
2019-03-13T02:41:04.548Z,965.31
2019-03-13T02:42:04.712Z,965.20
2019-03-13T02:43:09.915Z,965.28
2019-03-13T02:44:05.351Z,965.28
2019-03-13T02:45:04.485Z,965.34
2019-03-13T02:46:05.162Z,965.54
2019-03-13T02:47:04.653Z,965.56
2019-03-13T02:48:05.175Z,965.59
2019-03-13T02:49:05.278Z,965.67
2019-03-13T02:50:04.936Z,965.59
2019-03-13T02:51:05.263Z,965.75
2019-03-13T02:52:05.317Z,965.84
2019-03-13T02:53:04.598Z,965.73
2019-03-13T02:54:05.012Z,965.61
2019-03-13T02:55:05.165Z,965.78
2019-03-13T02:56:05.237Z,965.81
2019-03-13T02:57:05.283Z,965.81
2019-03-13T02:58:05.355Z,965.81
2019-03-13T02:59:04.590Z,965.87
2019-03-13T03:00:04.802Z,965.99
2019-03-13T03:01:04.600Z,966.01
2019-03-13T03:02:05.152Z,965.93
2019-03-13T03:03:04.747Z,965.93
2019-03-13T03:04:04.777Z,965.96
2019-03-13T03:05:04.847Z,966.10
2019-03-13T03:06:05.071Z,965.82
2019-03-13T03:07:05.132Z,966.21
2019-03-13T03:08:05.295Z,966.10
2019-03-13T03:09:04.883Z,966.05
2019-03-13T03:10:04.968Z,966.08
2019-03-13T03:11:05.274Z,966.19
2019-03-13T03:12:04.670Z,966.16
2019-03-13T03:13:04.735Z,966.16
2019-03-13T03:14:05.456Z,966.33
2019-03-13T03:15:05.494Z,966.28
2019-03-13T03:16:05.394Z,966.31
2019-03-13T03:17:05.430Z,966.33
2019-03-13T03:18:04.798Z,966.48
2019-03-13T03:19:04.956Z,966.28
2019-03-13T03:20:05.189Z,966.42
2019-03-13T03:21:05.280Z,966.45
2019-03-13T03:22:04.830Z,966.54
2019-03-13T03:23:04.945Z,966.54
2019-03-13T03:24:05.070Z,966.59
2019-03-13T03:25:05.150Z,966.59
2019-03-13T03:26:05.291Z,966.54
2019-03-13T03:27:05.429Z,966.63
2019-03-13T03:28:05.593Z,966.65
2019-03-13T03:29:05.055Z,966.65
2019-03-13T03:30:05.460Z,966.60
2019-03-13T03:31:05.291Z,966.60
2019-03-13T03:32:05.402Z,966.74
2019-03-13T03:33:05.119Z,966.74
2019-03-13T03:34:05.409Z,966.63
2019-03-13T03:35:05.342Z,966.89
2019-03-13T03:36:04.624Z,966.61
2019-03-13T03:37:05.210Z,966.80
2019-03-13T03:38:05.380Z,966.72
2019-03-13T03:39:04.541Z,966.83
2019-03-13T03:40:05.211Z,966.84
2019-03-13T03:41:05.411Z,966.70
2019-03-13T03:42:04.526Z,966.86
2019-03-13T03:43:10.256Z,966.86
2019-03-13T03:44:04.737Z,966.95
2019-03-13T03:45:05.358Z,966.89
2019-03-13T03:46:04.823Z,966.89
2019-03-13T03:47:04.781Z,966.89
2019-03-13T03:48:04.582Z,966.87
2019-03-13T03:49:05.242Z,966.76
2019-03-13T03:50:04.496Z,966.84
2019-03-13T03:51:05.014Z,966.84
2019-03-13T03:52:05.313Z,966.81
2019-03-13T03:53:05.481Z,966.92
2019-03-13T03:54:04.687Z,967.01
2019-03-13T03:55:05.138Z,966.81
2019-03-13T03:56:05.339Z,966.93
2019-03-13T03:57:04.480Z,966.95
2019-03-13T03:58:05.124Z,966.96
2019-03-13T03:59:05.195Z,966.90
2019-03-13T04:00:05.280Z,967.01
2019-03-13T04:01:04.911Z,966.96
2019-03-13T04:02:05.142Z,967.15
2019-03-13T04:03:10.386Z,967.20
2019-03-13T04:04:04.906Z,967.17
2019-03-13T04:05:05.121Z,967.20
2019-03-13T04:06:05.352Z,967.12
2019-03-13T04:07:05.418Z,967.39
2019-03-13T04:08:05.140Z,967.21
2019-03-13T04:09:05.376Z,967.18
2019-03-13T04:10:04.881Z,967.40
2019-03-13T04:11:05.483Z,967.27
2019-03-13T04:12:04.580Z,967.27
2019-03-13T04:13:04.818Z,967.24
2019-03-13T04:14:04.921Z,967.21
2019-03-13T04:15:04.694Z,967.30
2019-03-13T04:16:04.748Z,967.40
2019-03-13T04:17:04.700Z,967.27
2019-03-13T04:18:04.817Z,967.24
2019-03-13T04:19:04.825Z,967.41
2019-03-13T04:20:05.073Z,967.41
2019-03-13T04:21:04.815Z,967.41
2019-03-13T04:22:04.592Z,967.44
2019-03-13T04:23:05.333Z,967.53
2019-03-13T04:24:05.362Z,967.55
2019-03-13T04:25:04.677Z,967.61
2019-03-13T04:26:05.392Z,967.59
2019-03-13T04:27:04.901Z,967.56
2019-03-13T04:28:04.566Z,967.53
2019-03-13T04:29:04.674Z,967.48
2019-03-13T04:30:04.813Z,967.67
2019-03-13T04:31:05.248Z,967.65
2019-03-13T04:32:05.277Z,967.65
2019-03-13T04:33:05.518Z,967.76
2019-03-13T04:34:04.950Z,967.82
2019-03-13T04:35:05.179Z,967.76
2019-03-13T04:36:04.786Z,967.82
2019-03-13T04:37:05.403Z,967.93
2019-03-13T04:38:05.113Z,967.85
2019-03-13T04:39:05.363Z,967.73
2019-03-13T04:40:05.442Z,967.82
2019-03-13T04:41:04.642Z,967.85
2019-03-13T04:42:04.940Z,967.76
2019-03-13T04:43:04.984Z,967.74
2019-03-13T04:44:05.205Z,967.85
2019-03-13T04:45:04.934Z,967.82
2019-03-13T04:46:05.263Z,967.93
2019-03-13T04:47:04.722Z,967.82
2019-03-13T04:48:04.779Z,967.88
2019-03-13T04:49:05.064Z,967.99
2019-03-13T04:50:05.153Z,967.91
2019-03-13T04:51:05.559Z,967.83
2019-03-13T04:52:05.001Z,967.74
2019-03-13T04:53:04.812Z,967.83
2019-03-13T04:54:05.574Z,967.88
2019-03-13T04:55:04.876Z,967.74
2019-03-13T04:56:05.231Z,968.03
2019-03-13T04:57:05.599Z,967.92
2019-03-13T04:58:10.103Z,968.00
2019-03-13T04:59:04.617Z,967.81
2019-03-13T05:00:04.658Z,967.86
2019-03-13T05:01:04.747Z,968.03
2019-03-13T05:02:04.820Z,967.95
2019-03-13T05:03:05.535Z,968.09
2019-03-13T05:04:05.046Z,968.12
2019-03-13T05:05:05.508Z,968.09
2019-03-13T05:06:04.645Z,967.98
2019-03-13T05:07:04.999Z,968.07
2019-03-13T05:08:05.312Z,967.76
2019-03-13T05:09:05.082Z,967.98
2019-03-13T05:10:05.141Z,967.90
2019-03-13T05:11:05.421Z,967.99
2019-03-13T05:12:04.971Z,967.96
2019-03-13T05:13:05.183Z,967.90
2019-03-13T05:14:04.949Z,967.82
2019-03-13T05:15:05.101Z,967.96
2019-03-13T05:16:04.731Z,968.02
2019-03-13T05:17:05.082Z,967.99
2019-03-13T05:18:10.458Z,967.91
2019-03-13T05:19:04.944Z,967.94
2019-03-13T05:20:05.073Z,967.86
2019-03-13T05:21:05.315Z,967.89
2019-03-13T05:22:05.889Z,967.97
2019-03-13T05:23:04.868Z,968.03
2019-03-13T05:24:05.084Z,967.97
2019-03-13T05:25:05.644Z,967.86
2019-03-13T05:26:05.480Z,967.98
2019-03-13T05:27:05.432Z,967.98
2019-03-13T05:28:05.079Z,968.06
2019-03-13T05:29:05.344Z,968.06
2019-03-13T05:30:04.989Z,968.12
2019-03-13T05:31:04.970Z,968.09
2019-03-13T05:32:05.068Z,968.21
2019-03-13T05:33:05.620Z,968.24
2019-03-13T05:34:04.739Z,968.07
2019-03-13T05:35:05.286Z,968.24
2019-03-13T05:36:05.348Z,968.30
2019-03-13T05:37:05.436Z,968.35
2019-03-13T05:38:04.970Z,968.13
2019-03-13T05:39:05.288Z,968.22
2019-03-13T05:40:05.077Z,968.27
2019-03-13T05:41:05.255Z,968.27
2019-03-13T05:42:05.368Z,968.22
2019-03-13T05:43:04.923Z,968.33
2019-03-13T05:44:05.503Z,968.11
2019-03-13T05:45:08.733Z,968.17
2019-03-13T05:46:05.383Z,968.08
2019-03-13T05:47:05.210Z,968.11
2019-03-13T05:48:04.693Z,968.25
2019-03-13T05:49:10.073Z,968.23
2019-03-13T05:50:04.633Z,968.14
2019-03-13T05:51:05.062Z,968.34
2019-03-13T05:52:04.907Z,968.37
2019-03-13T05:53:04.914Z,968.28
2019-03-13T05:54:04.926Z,968.31
2019-03-13T05:55:04.866Z,968.26
2019-03-13T05:56:05.317Z,968.34
2019-03-13T05:57:05.125Z,968.34
2019-03-13T05:58:05.254Z,968.34
2019-03-13T05:59:04.838Z,968.12
2019-03-13T06:00:05.441Z,968.31
2019-03-13T06:01:04.587Z,968.34
2019-03-13T06:02:05.002Z,968.34
2019-03-13T06:03:04.765Z,968.25
2019-03-13T06:04:05.518Z,968.36
2019-03-13T06:05:04.640Z,968.28
2019-03-13T06:06:04.822Z,968.30
2019-03-13T06:07:04.867Z,968.15
2019-03-13T06:08:05.472Z,968.20
2019-03-13T06:09:05.098Z,968.30
2019-03-13T06:10:05.203Z,968.21
2019-03-13T06:11:05.478Z,968.24
2019-03-13T06:12:04.931Z,968.23
2019-03-13T06:13:04.587Z,968.20
2019-03-13T06:14:04.713Z,968.30
2019-03-13T06:15:04.983Z,968.35
2019-03-13T06:16:04.613Z,968.24
2019-03-13T06:17:05.323Z,968.37
2019-03-13T06:18:04.729Z,968.17
2019-03-13T06:19:04.850Z,968.19
2019-03-13T06:20:04.667Z,968.22
2019-03-13T06:21:04.691Z,968.21
2019-03-13T06:22:05.194Z,968.21
2019-03-13T06:23:05.239Z,968.31
2019-03-13T06:24:05.465Z,968.11
2019-03-13T06:25:04.875Z,968.19
2019-03-13T06:26:04.662Z,968.24
2019-03-13T06:27:05.233Z,968.20
2019-03-13T06:28:05.431Z,968.22
2019-03-13T06:29:04.605Z,968.27
2019-03-13T06:30:05.367Z,968.18
2019-03-13T06:31:05.487Z,968.12
2019-03-13T06:32:05.563Z,968.22
2019-03-13T06:33:04.799Z,968.41
2019-03-13T06:34:05.148Z,968.29
2019-03-13T06:35:05.058Z,968.14
2019-03-13T06:36:04.588Z,968.25
2019-03-13T06:37:04.789Z,968.16
2019-03-13T06:38:04.665Z,968.21
2019-03-13T06:39:04.834Z,968.17
2019-03-13T06:40:04.599Z,968.20
2019-03-13T06:41:05.768Z,968.31
2019-03-13T06:42:04.697Z,968.12
2019-03-13T06:43:04.947Z,968.29
2019-03-13T06:44:05.323Z,968.32
2019-03-13T06:45:04.515Z,968.32
2019-03-13T06:46:05.078Z,968.27
2019-03-13T06:47:05.057Z,968.16
2019-03-13T06:48:05.453Z,968.16
2019-03-13T06:49:04.667Z,968.22
2019-03-13T06:50:05.411Z,968.17
2019-03-13T06:51:04.762Z,968.20
2019-03-13T06:52:05.206Z,968.26
2019-03-13T06:53:05.173Z,968.09
2019-03-13T06:54:04.869Z,968.12
2019-03-13T06:55:05.265Z,968.21
2019-03-13T06:56:05.312Z,968.22
2019-03-13T06:57:10.036Z,968.05
2019-03-13T06:58:04.521Z,968.14
2019-03-13T06:59:04.865Z,968.05
2019-03-13T07:00:04.872Z,968.11
2019-03-13T07:01:04.639Z,968.33
2019-03-13T07:02:04.726Z,968.35
2019-03-13T07:03:05.742Z,968.37
2019-03-13T07:04:04.885Z,968.28
2019-03-13T07:05:05.396Z,968.30
2019-03-13T07:06:05.101Z,968.18
2019-03-13T07:07:05.344Z,968.29
2019-03-13T07:08:04.747Z,968.37
2019-03-13T07:09:04.958Z,968.19
2019-03-13T07:10:04.702Z,968.21
2019-03-13T07:11:05.365Z,968.35
2019-03-13T07:12:05.364Z,968.43
2019-03-13T07:13:05.358Z,968.40
2019-03-13T07:14:05.484Z,968.42
2019-03-13T07:15:04.553Z,968.45
2019-03-13T07:16:05.256Z,968.42
2019-03-13T07:17:10.486Z,968.28
2019-03-13T07:18:05.036Z,968.47
2019-03-13T07:19:05.342Z,968.33
2019-03-13T07:20:04.634Z,968.41
2019-03-13T07:21:05.316Z,968.52
2019-03-13T07:22:05.560Z,968.44
2019-03-13T07:23:04.676Z,968.27
2019-03-13T07:24:04.652Z,968.35
2019-03-13T07:25:04.654Z,968.33
2019-03-13T07:26:05.130Z,968.28
2019-03-13T07:27:05.422Z,968.31
2019-03-13T07:28:04.735Z,968.37
2019-03-13T07:29:12.860Z,968.44
2019-03-13T07:30:04.730Z,968.41
2019-03-13T07:31:04.851Z,968.36
2019-03-13T07:32:05.018Z,968.53
2019-03-13T07:33:05.138Z,968.54
2019-03-13T07:34:04.827Z,968.39
2019-03-13T07:35:05.438Z,968.48
2019-03-13T07:36:05.453Z,968.23
2019-03-13T07:37:04.787Z,968.38
2019-03-13T07:38:06.105Z,968.35
2019-03-13T07:39:04.995Z,968.35
2019-03-13T07:40:04.975Z,968.29
2019-03-13T07:41:04.496Z,968.34
2019-03-13T07:42:05.324Z,968.20
2019-03-13T07:43:10.025Z,968.31
2019-03-13T07:44:05.469Z,968.33
2019-03-13T07:45:04.694Z,968.39
2019-03-13T07:46:04.846Z,968.24
2019-03-13T07:47:04.567Z,968.30
2019-03-13T07:48:04.725Z,968.27
2019-03-13T07:49:05.002Z,968.35
2019-03-13T07:50:04.598Z,968.23
2019-03-13T07:51:05.178Z,968.31
2019-03-13T07:52:04.649Z,968.20
2019-03-13T07:53:05.022Z,968.17
2019-03-13T07:54:05.506Z,968.34
2019-03-13T07:55:05.100Z,968.23
2019-03-13T07:56:05.407Z,968.28
2019-03-13T07:57:04.670Z,968.29
2019-03-13T07:58:05.146Z,968.32
2019-03-13T07:59:04.709Z,968.26
2019-03-13T08:00:05.179Z,968.26
2019-03-13T08:01:05.388Z,968.32
2019-03-13T08:02:05.455Z,968.29
2019-03-13T08:03:10.106Z,968.27
2019-03-13T08:04:05.963Z,968.30
2019-03-13T08:05:04.802Z,968.19
2019-03-13T08:06:05.224Z,968.28
2019-03-13T08:07:05.068Z,968.39
2019-03-13T08:08:05.465Z,968.39
2019-03-13T08:09:04.555Z,968.56
2019-03-13T08:10:04.833Z,968.45
2019-03-13T08:11:05.180Z,968.48
2019-03-13T08:12:05.526Z,968.37
2019-03-13T08:13:04.496Z,968.57
2019-03-13T08:14:04.710Z,968.35
2019-03-13T08:15:04.938Z,968.46
2019-03-13T08:16:05.027Z,968.58
2019-03-13T08:17:05.037Z,968.52
2019-03-13T08:18:04.773Z,968.63
2019-03-13T08:19:04.916Z,968.44
2019-03-13T08:20:05.029Z,968.44
2019-03-13T08:21:05.374Z,968.50
2019-03-13T08:22:05.403Z,968.58
2019-03-13T08:23:04.818Z,968.38
2019-03-13T08:24:04.806Z,968.55
2019-03-13T08:25:08.461Z,968.55
2019-03-13T08:26:05.377Z,968.53
2019-03-13T08:27:05.389Z,968.44
2019-03-13T08:28:04.876Z,968.41
2019-03-13T08:29:05.077Z,968.41
2019-03-13T08:30:05.039Z,968.33
2019-03-13T08:31:05.197Z,968.33
2019-03-13T08:32:05.351Z,968.44
2019-03-13T08:33:05.004Z,968.53
2019-03-13T08:34:05.374Z,968.53
2019-03-13T08:35:04.767Z,968.47
2019-03-13T08:36:05.436Z,968.47
2019-03-13T08:37:04.775Z,968.38
2019-03-13T08:38:04.939Z,968.41
2019-03-13T08:39:05.068Z,968.55
2019-03-13T08:40:05.416Z,968.41
2019-03-13T08:41:04.520Z,968.38
2019-03-13T08:42:04.674Z,968.55
2019-03-13T08:43:04.885Z,968.61
2019-03-13T08:44:04.985Z,968.63
2019-03-13T08:45:05.046Z,968.63
2019-03-13T08:46:05.274Z,968.63
2019-03-13T08:47:05.481Z,968.60
2019-03-13T08:48:04.828Z,968.63
2019-03-13T08:49:04.978Z,968.52
2019-03-13T08:50:05.118Z,968.52
2019-03-13T08:51:04.785Z,968.57
2019-03-13T08:52:04.957Z,968.40
2019-03-13T08:53:05.524Z,968.52
2019-03-13T08:54:05.001Z,968.46
2019-03-13T08:55:05.579Z,968.55
2019-03-13T08:56:04.691Z,968.52
2019-03-13T08:57:04.811Z,968.43
2019-03-13T08:58:04.903Z,968.49
2019-03-13T08:59:05.247Z,968.60
2019-03-13T09:00:05.286Z,968.35
2019-03-13T09:01:04.663Z,968.52
2019-03-13T09:02:05.061Z,968.35
2019-03-13T09:03:04.600Z,968.57
2019-03-13T09:04:04.919Z,968.46
2019-03-13T09:05:05.154Z,968.46
2019-03-13T09:06:05.238Z,968.35
2019-03-13T09:07:04.705Z,968.35
2019-03-13T09:08:05.070Z,968.40
2019-03-13T09:09:05.325Z,968.35
2019-03-13T09:10:05.583Z,968.43
2019-03-13T09:11:04.640Z,968.48
2019-03-13T09:12:04.837Z,968.36
2019-03-13T09:13:04.968Z,968.39
2019-03-13T09:14:05.224Z,968.27
2019-03-13T09:15:05.173Z,968.41
2019-03-13T09:16:04.700Z,968.29
2019-03-13T09:17:04.980Z,968.35
2019-03-13T09:18:05.417Z,968.26
2019-03-13T09:19:04.553Z,968.37
2019-03-13T09:20:04.697Z,968.25
2019-03-13T09:21:05.367Z,968.19
2019-03-13T09:22:04.590Z,968.24
2019-03-13T09:23:04.836Z,968.24
2019-03-13T09:24:05.235Z,968.20
2019-03-13T09:25:12.726Z,968.28
2019-03-13T09:26:04.497Z,968.08
2019-03-13T09:27:04.713Z,968.25
2019-03-13T09:28:05.331Z,968.16
2019-03-13T09:29:04.634Z,968.27
2019-03-13T09:30:04.760Z,968.07
2019-03-13T09:31:05.040Z,968.21
2019-03-13T09:32:04.963Z,968.10
2019-03-13T09:33:05.275Z,968.15
2019-03-13T09:34:04.842Z,968.15
2019-03-13T09:35:04.963Z,968.18
2019-03-13T09:36:05.186Z,968.21
2019-03-13T09:37:05.350Z,968.10
2019-03-13T09:38:04.613Z,968.21
2019-03-13T09:39:05.125Z,968.09
2019-03-13T09:40:05.609Z,968.26
2019-03-13T09:41:05.148Z,968.43
2019-03-13T09:42:05.153Z,968.20
2019-03-13T09:43:05.370Z,968.23
2019-03-13T09:44:04.742Z,968.23
2019-03-13T09:45:05.178Z,968.23
2019-03-13T09:46:05.492Z,968.17
2019-03-13T09:47:04.538Z,968.23
2019-03-13T09:48:09.844Z,968.17
2019-03-13T09:49:05.362Z,968.20
2019-03-13T09:50:05.077Z,968.23
2019-03-13T09:51:05.163Z,968.09
2019-03-13T09:52:05.231Z,968.23
2019-03-13T09:53:05.231Z,968.11
2019-03-13T09:54:05.016Z,968.23
2019-03-13T09:55:05.119Z,968.23
2019-03-13T09:56:05.038Z,968.20
2019-03-13T09:57:05.068Z,968.24
2019-03-13T09:58:05.379Z,968.12
2019-03-13T09:59:05.533Z,968.27
2019-03-13T10:00:04.470Z,968.13
2019-03-13T10:01:04.907Z,968.05
2019-03-13T10:02:05.131Z,968.30
2019-03-13T10:03:05.209Z,968.31
2019-03-13T10:04:05.251Z,968.31
2019-03-13T10:05:04.839Z,968.29
2019-03-13T10:06:05.080Z,968.32
2019-03-13T10:07:05.065Z,968.43
2019-03-13T10:08:05.359Z,968.41
2019-03-13T10:09:04.911Z,968.32
2019-03-13T10:10:05.191Z,968.41
2019-03-13T10:11:04.641Z,968.30
2019-03-13T10:12:04.797Z,968.44
2019-03-13T10:13:05.309Z,968.33
2019-03-13T10:14:05.413Z,968.42
2019-03-13T10:15:04.764Z,968.30
2019-03-13T10:16:04.909Z,968.13
2019-03-13T10:17:11.523Z,968.33
2019-03-13T10:18:05.279Z,968.27
2019-03-13T10:19:05.444Z,968.10
2019-03-13T10:20:05.438Z,968.21
2019-03-13T10:21:05.032Z,968.12
2019-03-13T10:22:10.371Z,968.06
2019-03-13T10:23:04.893Z,968.08
2019-03-13T10:24:05.039Z,967.96
2019-03-13T10:25:05.080Z,968.19
2019-03-13T10:26:05.272Z,968.04
2019-03-13T10:27:04.776Z,968.13
2019-03-13T10:28:04.902Z,968.01
2019-03-13T10:29:05.087Z,967.93
2019-03-13T10:30:04.736Z,968.01
2019-03-13T10:31:04.848Z,968.04
2019-03-13T10:32:05.001Z,967.90
2019-03-13T10:33:05.275Z,968.07
2019-03-13T10:34:04.564Z,968.12
2019-03-13T10:35:05.129Z,968.07
2019-03-13T10:36:05.331Z,967.93
2019-03-13T10:37:04.600Z,967.95
2019-03-13T10:38:14.487Z,968.04
2019-03-13T10:39:05.373Z,968.02
2019-03-13T10:40:04.804Z,967.96
2019-03-13T10:41:05.548Z,967.91
2019-03-13T10:42:04.928Z,967.94
2019-03-13T10:43:05.333Z,968.00
2019-03-13T10:44:05.545Z,967.94
2019-03-13T10:45:04.648Z,967.94
2019-03-13T10:46:04.901Z,967.89
2019-03-13T10:47:04.950Z,968.03
2019-03-13T10:48:04.517Z,968.05
2019-03-13T10:49:04.698Z,968.00
2019-03-13T10:50:05.278Z,968.05
2019-03-13T10:51:04.738Z,968.08
2019-03-13T10:52:04.760Z,967.99
2019-03-13T10:53:05.141Z,967.99
2019-03-13T10:54:05.332Z,968.07
2019-03-13T10:55:04.682Z,967.93
2019-03-13T10:56:10.054Z,967.95
2019-03-13T10:57:05.558Z,967.92
2019-03-13T10:58:04.604Z,967.81
2019-03-13T10:59:04.750Z,967.95
2019-03-13T11:00:04.879Z,967.86
2019-03-13T11:01:05.319Z,967.91
2019-03-13T11:02:05.466Z,967.80
2019-03-13T11:03:04.658Z,967.91
2019-03-13T11:04:04.777Z,967.85
2019-03-13T11:05:05.140Z,967.82
2019-03-13T11:06:05.184Z,967.94
2019-03-13T11:07:04.583Z,967.91
2019-03-13T11:08:04.802Z,967.80
2019-03-13T11:09:05.371Z,967.77
2019-03-13T11:10:04.630Z,967.83
2019-03-13T11:11:05.075Z,967.77
2019-03-13T11:12:05.411Z,967.71
2019-03-13T11:13:04.658Z,967.63
2019-03-13T11:14:16.118Z,967.77
2019-03-13T11:15:04.844Z,967.78
2019-03-13T11:16:04.958Z,967.72
2019-03-13T11:17:04.638Z,967.78
2019-03-13T11:18:04.935Z,967.75
2019-03-13T11:19:05.101Z,967.86
2019-03-13T11:20:05.479Z,967.92
2019-03-13T11:21:04.807Z,967.84
2019-03-13T11:22:05.211Z,967.72
2019-03-13T11:23:05.418Z,967.69
2019-03-13T11:24:05.299Z,967.67
2019-03-13T11:25:04.939Z,967.81
2019-03-13T11:26:05.085Z,967.78
2019-03-13T11:27:05.205Z,967.84
2019-03-13T11:28:05.481Z,967.75
2019-03-13T11:29:05.112Z,967.90
2019-03-13T11:30:05.417Z,967.81
2019-03-13T11:31:05.470Z,967.81
2019-03-13T11:32:05.015Z,967.76
2019-03-13T11:33:05.479Z,967.78
2019-03-13T11:34:04.653Z,967.70
2019-03-13T11:35:05.131Z,967.78
2019-03-13T11:36:04.648Z,967.67
2019-03-13T11:37:04.882Z,967.72
2019-03-13T11:38:04.999Z,967.78
2019-03-13T11:39:05.080Z,967.58
2019-03-13T11:40:05.283Z,967.61
2019-03-13T11:41:04.838Z,967.64
2019-03-13T11:42:04.854Z,967.75
2019-03-13T11:43:10.295Z,967.44
2019-03-13T11:44:04.859Z,967.44
2019-03-13T11:45:05.396Z,967.46
2019-03-13T11:46:04.920Z,967.52
2019-03-13T11:47:05.190Z,967.51
2019-03-13T11:48:05.304Z,967.54
2019-03-13T11:49:04.899Z,967.53
2019-03-13T11:50:05.157Z,967.31
2019-03-13T11:51:05.310Z,967.44
2019-03-13T11:52:04.801Z,967.49
2019-03-13T11:53:05.487Z,967.33
2019-03-13T11:54:04.672Z,967.49
2019-03-13T11:55:04.730Z,967.33
2019-03-13T11:56:05.033Z,967.40
2019-03-13T11:57:05.081Z,967.48
2019-03-13T11:58:04.567Z,967.42
2019-03-13T11:59:04.762Z,967.25
2019-03-13T12:00:04.979Z,967.33
2019-03-13T12:01:05.277Z,967.22
2019-03-13T12:02:05.407Z,967.40
2019-03-13T12:03:04.761Z,967.27
2019-03-13T12:04:04.933Z,967.33
2019-03-13T12:05:04.802Z,967.24
2019-03-13T12:06:04.744Z,967.27
2019-03-13T12:07:04.793Z,967.29
2019-03-13T12:08:05.368Z,967.20
2019-03-13T12:09:05.364Z,967.34
2019-03-13T12:10:04.600Z,967.17
2019-03-13T12:11:04.727Z,966.95
2019-03-13T12:12:05.061Z,966.95
2019-03-13T12:13:04.602Z,967.09
2019-03-13T12:14:04.758Z,967.03
2019-03-13T12:15:05.011Z,966.96
2019-03-13T12:16:05.289Z,967.09
2019-03-13T12:17:05.343Z,967.23
2019-03-13T12:18:05.319Z,967.01
2019-03-13T12:19:04.755Z,966.99
2019-03-13T12:20:04.821Z,966.85
2019-03-13T12:21:04.857Z,967.01
2019-03-13T12:22:05.368Z,966.90
2019-03-13T12:23:05.150Z,966.90
2019-03-13T12:24:04.637Z,966.76
2019-03-13T12:25:04.712Z,966.73
2019-03-13T12:26:04.958Z,966.78
2019-03-13T12:27:05.060Z,966.89
2019-03-13T12:28:05.031Z,966.95